SVA417 OERK-HECA
Flight info
| Callsign | SVA417 |
|---|---|
| Flight time | 2h 14m |
| Altitude | 38000 |
| Route | IVONU M321 HLF N316 RAGPU L677 CVO |
| Aircraft | B77W/H-SDE1E2E3FGHIJ2J3J4J5M1RWXY/LB1D1 |
Departure
| Time | 2026-05-07 11:02 |
|---|---|
| Airport | King Khalid International Airport (OERK) |
Arrival
| Time | 2026-05-07 13:16 |
|---|---|
| Airport | Cairo International Airport (HECA) |
| Time | Latitude | Longitude | Altitude | Speed | Heading |
|---|---|---|---|---|---|
| 2026-05-07 10:30 | 24.96471 | 46.70188 | 2034 ft | 0 kts | 237° |
| 2026-05-07 10:50 | 24.96446 | 46.70147 | 2044 ft | 3 kts | 57° |
| 2026-05-07 10:51 | 24.96459 | 46.70172 | 2043 ft | 4 kts | 61° |
| 2026-05-07 10:51 | 24.96472 | 46.70196 | 2044 ft | 4 kts | 59° |
| 2026-05-07 10:51 | 24.96474 | 46.70200 | 2042 ft | 0 kts | 56° |
| 2026-05-07 10:54 | 24.96498 | 46.70241 | 2042 ft | 13 kts | 53° |
| 2026-05-07 10:54 | 24.96552 | 46.70251 | 2042 ft | 0 kts | 333° |
| 2026-05-07 10:55 | 24.96553 | 46.70251 | 2041 ft | 1 kts | 334° |
| 2026-05-07 10:56 | 24.96591 | 46.70231 | 2042 ft | 14 kts | 334° |
| 2026-05-07 10:56 | 24.96678 | 46.70179 | 2042 ft | 14 kts | 330° |
| 2026-05-07 10:56 | 24.96763 | 46.70124 | 2041 ft | 14 kts | 330° |
| 2026-05-07 10:56 | 24.96850 | 46.70070 | 2042 ft | 14 kts | 330° |
| 2026-05-07 10:57 | 24.96937 | 46.70015 | 2041 ft | 15 kts | 331° |
| 2026-05-07 10:57 | 24.97022 | 46.69962 | 2042 ft | 13 kts | 329° |
| 2026-05-07 10:57 | 24.97098 | 46.69913 | 2041 ft | 13 kts | 329° |
| 2026-05-07 10:57 | 24.97176 | 46.69863 | 2037 ft | 13 kts | 330° |
| 2026-05-07 10:58 | 24.97252 | 46.69815 | 2041 ft | 13 kts | 330° |
| 2026-05-07 10:58 | 24.97329 | 46.69767 | 2040 ft | 13 kts | 330° |
| 2026-05-07 10:58 | 24.97411 | 46.69743 | 2041 ft | 13 kts | 23° |
| 2026-05-07 10:58 | 24.97465 | 46.69820 | 2041 ft | 13 kts | 59° |
| 2026-05-07 10:59 | 24.97511 | 46.69906 | 2040 ft | 13 kts | 59° |
| 2026-05-07 10:59 | 24.97541 | 46.69964 | 2040 ft | 13 kts | 60° |
| 2026-05-07 10:59 | 24.97573 | 46.70024 | 2043 ft | 13 kts | 60° |
| 2026-05-07 10:59 | 24.97617 | 46.70111 | 2040 ft | 13 kts | 65° |
| 2026-05-07 11:00 | 24.97617 | 46.70208 | 2035 ft | 13 kts | 111° |
| 2026-05-07 11:00 | 24.97557 | 46.70280 | 2043 ft | 13 kts | 147° |
| 2026-05-07 11:00 | 24.97543 | 46.70290 | 2043 ft | 0 kts | 148° |
| 2026-05-07 11:00 | 24.97539 | 46.70293 | 2043 ft | 1 kts | 148° |
| 2026-05-07 11:01 | 24.97534 | 46.70296 | 2042 ft | 1 kts | 148° |
| 2026-05-07 11:01 | 24.97526 | 46.70301 | 2033 ft | 6 kts | 149° |
| 2026-05-07 11:01 | 24.97275 | 46.70461 | 2043 ft | 94 kts | 150° |
| 2026-05-07 11:01 | 24.96376 | 46.71030 | 2042 ft | 200 kts | 149° |
| 2026-05-07 11:02 | 24.95016 | 46.71866 | 2736 ft | 240 kts | 148° |
| 2026-05-07 11:02 | 24.93591 | 46.72802 | 3665 ft | 242 kts | 137° |
| 2026-05-07 11:02 | 24.92353 | 46.74058 | 5092 ft | 241 kts | 139° |
| 2026-05-07 11:02 | 24.91104 | 46.75255 | 6157 ft | 239 kts | 141° |
| 2026-05-07 11:03 | 24.89800 | 46.76468 | 7045 ft | 246 kts | 142° |
| 2026-05-07 11:03 | 24.88489 | 46.77676 | 7916 ft | 251 kts | 143° |
| 2026-05-07 11:03 | 24.86989 | 46.78680 | 8618 ft | 256 kts | 167° |
| 2026-05-07 11:03 | 24.85206 | 46.78616 | 9459 ft | 263 kts | 198° |
| 2026-05-07 11:04 | 24.83633 | 46.77606 | 10380 ft | 268 kts | 222° |
| 2026-05-07 11:04 | 24.82586 | 46.76116 | 11125 ft | 280 kts | 241° |
| 2026-05-07 11:04 | 24.81913 | 46.73991 | 11524 ft | 311 kts | 253° |
| 2026-05-07 11:04 | 24.81411 | 46.71530 | 11736 ft | 344 kts | 256° |
| 2026-05-07 11:05 | 24.81000 | 46.68806 | 12042 ft | 373 kts | 264° |
| 2026-05-07 11:05 | 24.80987 | 46.68599 | 12083 ft | 374 kts | 264° |
| 2026-05-07 11:05 | 24.81102 | 46.65686 | 12972 ft | 384 kts | 276° |
| 2026-05-07 11:05 | 24.81664 | 46.62809 | 14091 ft | 385 kts | 283° |
| 2026-05-07 11:06 | 24.82383 | 46.59960 | 15036 ft | 389 kts | 284° |
| 2026-05-07 11:06 | 24.83135 | 46.57075 | 15925 ft | 395 kts | 284° |
| 2026-05-07 11:06 | 24.83900 | 46.54158 | 16860 ft | 399 kts | 284° |
| 2026-05-07 11:06 | 24.84670 | 46.51194 | 17843 ft | 402 kts | 284° |
| 2026-05-07 11:07 | 24.85434 | 46.48227 | 18720 ft | 406 kts | 284° |
| 2026-05-07 11:07 | 24.86198 | 46.45235 | 19474 ft | 412 kts | 283° |
| 2026-05-07 11:07 | 24.86975 | 46.42176 | 20205 ft | 418 kts | 283° |
| 2026-05-07 11:07 | 24.87764 | 46.39057 | 20938 ft | 423 kts | 283° |
| 2026-05-07 11:08 | 24.88547 | 46.35948 | 21668 ft | 428 kts | 282° |
| 2026-05-07 11:08 | 24.89349 | 46.32760 | 22368 ft | 433 kts | 282° |
| 2026-05-07 11:08 | 24.90158 | 46.29538 | 23068 ft | 438 kts | 282° |
| 2026-05-07 11:08 | 24.90971 | 46.26299 | 23709 ft | 443 kts | 282° |
| 2026-05-07 11:09 | 24.91798 | 46.23002 | 24307 ft | 446 kts | 282° |
| 2026-05-07 11:09 | 24.92619 | 46.19728 | 24949 ft | 447 kts | 281° |
| 2026-05-07 11:09 | 24.93454 | 46.16397 | 25604 ft | 448 kts | 281° |
| 2026-05-07 11:09 | 24.94278 | 46.13103 | 26205 ft | 451 kts | 281° |
| 2026-05-07 11:10 | 24.95120 | 46.09734 | 26820 ft | 453 kts | 281° |
| 2026-05-07 11:10 | 24.95960 | 46.06369 | 27377 ft | 456 kts | 281° |
| 2026-05-07 11:10 | 24.96797 | 46.03009 | 27922 ft | 459 kts | 281° |
| 2026-05-07 11:10 | 24.97650 | 45.99582 | 28445 ft | 462 kts | 281° |
| 2026-05-07 11:11 | 24.98493 | 45.96198 | 28952 ft | 464 kts | 281° |
| 2026-05-07 11:11 | 24.99354 | 45.92736 | 29421 ft | 467 kts | 281° |
| 2026-05-07 11:11 | 25.00218 | 45.89257 | 29870 ft | 469 kts | 280° |
| 2026-05-07 11:11 | 25.01070 | 45.85821 | 30258 ft | 471 kts | 280° |
| 2026-05-07 11:12 | 25.01939 | 45.82321 | 30779 ft | 468 kts | 280° |
| 2026-05-07 11:12 | 25.02791 | 45.78886 | 31395 ft | 464 kts | 280° |
| 2026-05-07 11:12 | 25.03633 | 45.75481 | 32011 ft | 460 kts | 279° |
| 2026-05-07 11:12 | 25.04473 | 45.72079 | 32542 ft | 458 kts | 279° |
| 2026-05-07 11:13 | 25.05302 | 45.68717 | 33070 ft | 455 kts | 279° |
| 2026-05-07 11:13 | 25.06016 | 45.65322 | 33590 ft | 450 kts | 275° |
| 2026-05-07 11:13 | 25.06604 | 45.61927 | 34102 ft | 447 kts | 275° |
| 2026-05-07 11:13 | 25.07169 | 45.58557 | 34539 ft | 445 kts | 274° |
| 2026-05-07 11:14 | 25.07724 | 45.55217 | 34938 ft | 444 kts | 274° |
| 2026-05-07 11:14 | 25.08276 | 45.51899 | 35325 ft | 443 kts | 274° |
| 2026-05-07 11:14 | 25.08838 | 45.48542 | 35716 ft | 441 kts | 274° |
| 2026-05-07 11:14 | 25.09391 | 45.45255 | 36112 ft | 440 kts | 274° |
| 2026-05-07 11:15 | 25.09952 | 45.41928 | 36490 ft | 439 kts | 274° |
| 2026-05-07 11:15 | 25.10507 | 45.38641 | 36869 ft | 437 kts | 274° |
| 2026-05-07 11:15 | 25.11069 | 45.35316 | 37263 ft | 436 kts | 274° |
| 2026-05-07 11:15 | 25.11617 | 45.32066 | 37629 ft | 434 kts | 274° |
| 2026-05-07 11:16 | 25.12172 | 45.28772 | 37894 ft | 436 kts | 274° |
| 2026-05-07 11:16 | 25.12724 | 45.25477 | 37920 ft | 439 kts | 274° |
| 2026-05-07 11:16 | 25.13829 | 45.18892 | 37930 ft | 435 kts | 274° |
| 2026-05-07 11:17 | 25.14926 | 45.12355 | 37940 ft | 430 kts | 274° |
| 2026-05-07 11:17 | 25.16004 | 45.05887 | 37947 ft | 428 kts | 274° |
| 2026-05-07 11:18 | 25.17076 | 44.99433 | 37894 ft | 428 kts | 274° |
| 2026-05-07 11:18 | 25.18147 | 44.92974 | 37941 ft | 429 kts | 274° |
| 2026-05-07 11:19 | 25.19219 | 44.86492 | 37953 ft | 430 kts | 274° |
| 2026-05-07 11:19 | 25.20294 | 44.79973 | 37952 ft | 432 kts | 274° |
| 2026-05-07 11:20 | 25.21368 | 44.73445 | 37957 ft | 433 kts | 274° |
| 2026-05-07 11:20 | 25.22441 | 44.66906 | 37942 ft | 433 kts | 274° |
| 2026-05-07 11:21 | 25.23513 | 44.60354 | 37949 ft | 433 kts | 274° |
| 2026-05-07 11:21 | 25.24396 | 44.54944 | 37940 ft | 432 kts | 274° |
| 2026-05-07 11:22 | 25.25470 | 44.48424 | 37943 ft | 431 kts | 274° |
| 2026-05-07 11:22 | 25.26898 | 44.40856 | 37949 ft | 431 kts | 275° |
| 2026-05-07 11:23 | 25.28136 | 44.34486 | 37968 ft | 433 kts | 275° |
| 2026-05-07 11:23 | 25.29180 | 44.29026 | 37967 ft | 439 kts | 275° |
| 2026-05-07 11:24 | 25.30443 | 44.22358 | 37954 ft | 443 kts | 275° |
| 2026-05-07 11:24 | 25.31696 | 44.15714 | 37952 ft | 445 kts | 275° |
| 2026-05-07 11:25 | 25.32955 | 44.09026 | 37952 ft | 445 kts | 275° |
| 2026-05-07 11:25 | 25.34209 | 44.02344 | 37953 ft | 443 kts | 275° |
| 2026-05-07 11:26 | 25.35463 | 43.95648 | 37955 ft | 442 kts | 275° |
| 2026-05-07 11:26 | 25.36703 | 43.89001 | 37958 ft | 440 kts | 274° |
| 2026-05-07 11:27 | 25.37926 | 43.82426 | 37963 ft | 439 kts | 274° |
| 2026-05-07 11:27 | 25.39157 | 43.75791 | 37955 ft | 438 kts | 274° |
| 2026-05-07 11:28 | 25.40376 | 43.69199 | 37957 ft | 438 kts | 274° |
| 2026-05-07 11:28 | 25.41592 | 43.62614 | 37966 ft | 437 kts | 274° |
| 2026-05-07 11:29 | 25.42803 | 43.56036 | 37972 ft | 437 kts | 274° |
| 2026-05-07 11:29 | 25.44017 | 43.49422 | 37966 ft | 437 kts | 274° |
| 2026-05-07 11:30 | 25.45219 | 43.42859 | 37971 ft | 436 kts | 274° |
| 2026-05-07 11:30 | 25.46421 | 43.36280 | 37965 ft | 436 kts | 274° |
| 2026-05-07 11:31 | 25.47620 | 43.29699 | 37966 ft | 436 kts | 274° |
| 2026-05-07 11:31 | 25.48814 | 43.23123 | 37967 ft | 436 kts | 274° |
| 2026-05-07 11:32 | 25.50598 | 43.13273 | 37968 ft | 436 kts | 274° |
| 2026-05-07 11:33 | 25.51786 | 43.06694 | 37968 ft | 436 kts | 273° |
| 2026-05-07 11:33 | 25.52978 | 43.00074 | 37982 ft | 436 kts | 272° |
| 2026-05-07 11:34 | 25.54167 | 42.93498 | 37973 ft | 436 kts | 272° |
| 2026-05-07 11:34 | 25.55354 | 42.86935 | 37957 ft | 435 kts | 272° |
| 2026-05-07 11:35 | 25.56537 | 42.80374 | 37974 ft | 435 kts | 272° |
| 2026-05-07 11:35 | 25.57708 | 42.73855 | 37942 ft | 434 kts | 272° |
| 2026-05-07 11:36 | 25.58883 | 42.67304 | 37949 ft | 433 kts | 272° |
| 2026-05-07 11:36 | 25.60058 | 42.60731 | 37946 ft | 434 kts | 272° |
| 2026-05-07 11:37 | 25.61226 | 42.54172 | 37949 ft | 434 kts | 272° |
| 2026-05-07 11:37 | 25.62387 | 42.47642 | 37943 ft | 434 kts | 272° |
| 2026-05-07 11:38 | 25.63549 | 42.41094 | 37946 ft | 433 kts | 272° |
| 2026-05-07 11:38 | 25.64707 | 42.34543 | 37937 ft | 433 kts | 272° |
| 2026-05-07 11:39 | 25.65863 | 42.27989 | 37944 ft | 433 kts | 272° |
| 2026-05-07 11:39 | 25.67348 | 42.21442 | 37937 ft | 440 kts | 277° |
| 2026-05-07 11:40 | 25.69113 | 42.14978 | 37933 ft | 440 kts | 277° |
| 2026-05-07 11:40 | 25.70888 | 42.08468 | 37933 ft | 439 kts | 277° |
| 2026-05-07 11:41 | 25.72641 | 42.01976 | 37927 ft | 438 kts | 276° |
| 2026-05-07 11:41 | 25.74376 | 41.95511 | 37926 ft | 438 kts | 276° |
| 2026-05-07 11:42 | 25.76104 | 41.89055 | 37925 ft | 438 kts | 276° |
| 2026-05-07 11:42 | 25.77838 | 41.82561 | 37928 ft | 438 kts | 276° |
| 2026-05-07 11:43 | 25.79569 | 41.76069 | 37924 ft | 438 kts | 276° |
| 2026-05-07 11:43 | 25.81285 | 41.69623 | 37923 ft | 438 kts | 276° |
| 2026-05-07 11:44 | 25.83008 | 41.63136 | 37927 ft | 439 kts | 276° |
| 2026-05-07 11:44 | 25.84739 | 41.56607 | 37929 ft | 439 kts | 276° |
| 2026-05-07 11:45 | 25.86461 | 41.50100 | 37933 ft | 440 kts | 276° |
| 2026-05-07 11:45 | 25.88174 | 41.43615 | 37927 ft | 440 kts | 276° |
| 2026-05-07 11:46 | 25.89895 | 41.37086 | 37936 ft | 440 kts | 276° |
| 2026-05-07 11:46 | 25.91621 | 41.30524 | 37941 ft | 441 kts | 276° |
| 2026-05-07 11:47 | 25.93328 | 41.24021 | 37935 ft | 441 kts | 276° |
| 2026-05-07 11:47 | 25.95043 | 41.17477 | 37938 ft | 441 kts | 276° |
| 2026-05-07 11:48 | 25.96754 | 41.10934 | 37938 ft | 441 kts | 276° |
| 2026-05-07 11:48 | 25.98469 | 41.04360 | 37937 ft | 441 kts | 276° |
| 2026-05-07 11:49 | 26.00160 | 40.97866 | 37939 ft | 441 kts | 276° |
| 2026-05-07 11:49 | 26.01867 | 40.91297 | 37941 ft | 441 kts | 276° |
| 2026-05-07 11:50 | 26.03563 | 40.84757 | 37940 ft | 441 kts | 276° |
| 2026-05-07 11:50 | 26.05258 | 40.78210 | 37944 ft | 441 kts | 276° |
| 2026-05-07 11:51 | 26.06953 | 40.71647 | 37948 ft | 441 kts | 276° |
| 2026-05-07 11:51 | 26.08641 | 40.65082 | 37949 ft | 442 kts | 276° |
| 2026-05-07 11:52 | 26.10333 | 40.58487 | 37950 ft | 442 kts | 276° |
| 2026-05-07 11:52 | 26.12011 | 40.51934 | 37950 ft | 442 kts | 276° |
| 2026-05-07 11:53 | 26.13691 | 40.45359 | 37953 ft | 442 kts | 276° |
| 2026-05-07 11:53 | 26.15379 | 40.38742 | 37965 ft | 443 kts | 276° |
| 2026-05-07 11:54 | 26.17055 | 40.32159 | 37967 ft | 443 kts | 276° |
| 2026-05-07 11:54 | 26.18736 | 40.25549 | 37974 ft | 443 kts | 276° |
| 2026-05-07 11:55 | 26.20402 | 40.18984 | 37977 ft | 443 kts | 276° |
| 2026-05-07 11:55 | 26.22077 | 40.12370 | 37988 ft | 443 kts | 276° |
| 2026-05-07 11:56 | 26.23745 | 40.05767 | 37988 ft | 444 kts | 276° |
| 2026-05-07 11:56 | 26.25422 | 39.99115 | 37992 ft | 444 kts | 276° |
| 2026-05-07 11:57 | 26.27086 | 39.92503 | 37991 ft | 444 kts | 276° |
| 2026-05-07 11:57 | 26.28745 | 39.85894 | 37995 ft | 444 kts | 276° |
| 2026-05-07 11:58 | 26.30404 | 39.79271 | 37973 ft | 444 kts | 276° |
| 2026-05-07 11:58 | 26.32069 | 39.72610 | 37975 ft | 445 kts | 276° |
| 2026-05-07 11:59 | 26.33727 | 39.65967 | 37981 ft | 445 kts | 277° |
| 2026-05-07 11:59 | 26.35380 | 39.59326 | 37976 ft | 445 kts | 277° |
| 2026-05-07 12:00 | 26.37033 | 39.52672 | 37971 ft | 445 kts | 277° |
| 2026-05-07 12:00 | 26.38672 | 39.46059 | 37973 ft | 445 kts | 277° |
| 2026-05-07 12:01 | 26.40328 | 39.39364 | 37971 ft | 445 kts | 276° |
| 2026-05-07 12:01 | 26.41967 | 39.32724 | 37981 ft | 445 kts | 277° |
| 2026-05-07 12:02 | 26.43607 | 39.26073 | 37978 ft | 445 kts | 277° |
| 2026-05-07 12:02 | 26.45338 | 39.19463 | 37976 ft | 447 kts | 278° |
| 2026-05-07 12:03 | 26.47132 | 39.12792 | 37978 ft | 447 kts | 278° |
| 2026-05-07 12:03 | 26.48896 | 39.06188 | 37980 ft | 447 kts | 278° |
| 2026-05-07 12:04 | 26.50663 | 38.99523 | 37978 ft | 447 kts | 278° |
| 2026-05-07 12:04 | 26.52416 | 38.92876 | 37975 ft | 447 kts | 278° |
| 2026-05-07 12:05 | 26.54165 | 38.86227 | 37986 ft | 447 kts | 278° |
| 2026-05-07 12:05 | 26.55918 | 38.79552 | 37983 ft | 446 kts | 277° |
| 2026-05-07 12:06 | 26.57658 | 38.72917 | 38023 ft | 446 kts | 277° |
| 2026-05-07 12:06 | 26.58526 | 38.69607 | 38500 ft | 441 kts | 277° |
| 2026-05-07 12:06 | 26.59385 | 38.66338 | 39018 ft | 434 kts | 277° |
| 2026-05-07 12:06 | 26.60221 | 38.63151 | 39410 ft | 430 kts | 277° |
| 2026-05-07 12:07 | 26.61063 | 38.59924 | 39667 ft | 430 kts | 277° |
| 2026-05-07 12:07 | 26.61894 | 38.56726 | 39852 ft | 431 kts | 277° |
| 2026-05-07 12:07 | 26.62734 | 38.53483 | 39893 ft | 433 kts | 277° |
| 2026-05-07 12:08 | 26.64124 | 38.48125 | 39961 ft | 432 kts | 278° |
| 2026-05-07 12:08 | 26.65806 | 38.41655 | 39954 ft | 430 kts | 278° |
| 2026-05-07 12:09 | 26.67464 | 38.35257 | 39950 ft | 428 kts | 277° |
| 2026-05-07 12:09 | 26.69103 | 38.28916 | 39939 ft | 427 kts | 277° |
| 2026-05-07 12:10 | 26.70754 | 38.22511 | 39937 ft | 427 kts | 277° |
| 2026-05-07 12:10 | 26.72396 | 38.16134 | 39934 ft | 427 kts | 278° |
| 2026-05-07 12:11 | 26.74038 | 38.09742 | 39940 ft | 428 kts | 278° |
| 2026-05-07 12:11 | 26.75679 | 38.03336 | 39935 ft | 430 kts | 278° |
| 2026-05-07 12:12 | 26.77328 | 37.96892 | 39943 ft | 431 kts | 278° |
| 2026-05-07 12:12 | 26.78976 | 37.90443 | 39941 ft | 432 kts | 278° |
| 2026-05-07 12:13 | 26.80620 | 37.83990 | 39951 ft | 432 kts | 278° |
| 2026-05-07 12:13 | 26.82269 | 37.77511 | 39934 ft | 432 kts | 278° |
| 2026-05-07 12:14 | 26.83909 | 37.71046 | 39953 ft | 432 kts | 278° |
| 2026-05-07 12:14 | 26.85552 | 37.64565 | 39964 ft | 431 kts | 278° |
| 2026-05-07 12:15 | 26.87187 | 37.58094 | 39961 ft | 433 kts | 278° |
| 2026-05-07 12:15 | 26.88817 | 37.51624 | 39969 ft | 434 kts | 278° |
| 2026-05-07 12:16 | 26.90461 | 37.45092 | 39968 ft | 436 kts | 278° |
| 2026-05-07 12:16 | 26.92103 | 37.38555 | 39970 ft | 437 kts | 278° |
| 2026-05-07 12:17 | 26.93748 | 37.31981 | 39938 ft | 440 kts | 278° |
| 2026-05-07 12:17 | 26.95396 | 37.25398 | 39953 ft | 439 kts | 278° |
| 2026-05-07 12:18 | 26.97048 | 37.18793 | 39951 ft | 437 kts | 278° |
| 2026-05-07 12:18 | 26.98677 | 37.12251 | 39952 ft | 436 kts | 278° |
| 2026-05-07 12:19 | 27.00302 | 37.05710 | 39950 ft | 435 kts | 278° |
| 2026-05-07 12:19 | 27.01925 | 36.99161 | 39956 ft | 436 kts | 278° |
| 2026-05-07 12:20 | 27.03546 | 36.92602 | 39949 ft | 438 kts | 278° |
| 2026-05-07 12:20 | 27.05167 | 36.86029 | 39932 ft | 439 kts | 278° |
| 2026-05-07 12:21 | 27.06797 | 36.79420 | 39934 ft | 440 kts | 278° |
| 2026-05-07 12:21 | 27.08425 | 36.72796 | 39930 ft | 441 kts | 278° |
| 2026-05-07 12:22 | 27.10056 | 36.66145 | 39926 ft | 442 kts | 279° |
| 2026-05-07 12:22 | 27.11680 | 36.59507 | 39918 ft | 443 kts | 279° |
| 2026-05-07 12:23 | 27.13309 | 36.52841 | 39917 ft | 444 kts | 279° |
| 2026-05-07 12:23 | 27.14946 | 36.46122 | 39922 ft | 445 kts | 279° |
| 2026-05-07 12:24 | 27.16573 | 36.39426 | 39908 ft | 446 kts | 279° |
| 2026-05-07 12:24 | 27.18203 | 36.32706 | 39910 ft | 446 kts | 279° |
| 2026-05-07 12:25 | 27.19822 | 36.26018 | 39913 ft | 446 kts | 279° |
| 2026-05-07 12:25 | 27.21454 | 36.19261 | 39912 ft | 446 kts | 279° |
| 2026-05-07 12:26 | 27.23063 | 36.12578 | 39906 ft | 446 kts | 279° |
| 2026-05-07 12:26 | 27.24677 | 36.05864 | 39913 ft | 445 kts | 279° |
| 2026-05-07 12:27 | 27.26290 | 35.99141 | 39920 ft | 446 kts | 279° |
| 2026-05-07 12:27 | 27.27908 | 35.92374 | 39925 ft | 447 kts | 279° |
| 2026-05-07 12:28 | 27.29519 | 35.85621 | 39908 ft | 448 kts | 280° |
| 2026-05-07 12:28 | 27.31132 | 35.78852 | 39911 ft | 449 kts | 280° |
| 2026-05-07 12:29 | 27.32743 | 35.72072 | 39913 ft | 449 kts | 280° |
| 2026-05-07 12:29 | 27.34354 | 35.65276 | 39915 ft | 450 kts | 280° |
| 2026-05-07 12:30 | 27.35963 | 35.58473 | 39909 ft | 450 kts | 280° |
| 2026-05-07 12:30 | 27.37566 | 35.51681 | 39912 ft | 451 kts | 280° |
| 2026-05-07 12:31 | 27.39173 | 35.44853 | 39909 ft | 451 kts | 280° |
| 2026-05-07 12:31 | 27.40768 | 35.38062 | 39908 ft | 451 kts | 280° |
| 2026-05-07 12:32 | 27.42367 | 35.31236 | 39901 ft | 451 kts | 280° |
| 2026-05-07 12:32 | 27.43963 | 35.24406 | 39903 ft | 452 kts | 281° |
| 2026-05-07 12:33 | 27.46362 | 35.14110 | 39898 ft | 452 kts | 281° |
| 2026-05-07 12:33 | 27.47955 | 35.07254 | 39893 ft | 452 kts | 281° |
| 2026-05-07 12:34 | 27.49534 | 35.00444 | 39891 ft | 453 kts | 281° |
| 2026-05-07 12:34 | 27.51798 | 34.93775 | 39901 ft | 461 kts | 296° |
| 2026-05-07 12:35 | 27.55677 | 34.87949 | 39894 ft | 471 kts | 310° |
| 2026-05-07 12:35 | 27.60473 | 34.82908 | 39898 ft | 474 kts | 313° |
| 2026-05-07 12:36 | 27.65363 | 34.77886 | 39902 ft | 474 kts | 313° |
| 2026-05-07 12:36 | 27.70178 | 34.72840 | 39903 ft | 474 kts | 312° |
| 2026-05-07 12:37 | 27.74973 | 34.67752 | 39910 ft | 474 kts | 312° |
| 2026-05-07 12:37 | 27.79800 | 34.62617 | 39916 ft | 474 kts | 312° |
| 2026-05-07 12:38 | 27.84579 | 34.57532 | 39926 ft | 474 kts | 312° |
| 2026-05-07 12:38 | 27.89386 | 34.52411 | 39933 ft | 473 kts | 312° |
| 2026-05-07 12:39 | 27.94164 | 34.47316 | 39938 ft | 472 kts | 312° |
| 2026-05-07 12:39 | 27.98923 | 34.42228 | 39941 ft | 471 kts | 311° |
| 2026-05-07 12:40 | 28.03229 | 34.36726 | 39948 ft | 466 kts | 306° |
| 2026-05-07 12:40 | 28.07311 | 34.31007 | 39945 ft | 466 kts | 305° |
| 2026-05-07 12:41 | 28.11376 | 34.25314 | 39939 ft | 466 kts | 305° |
| 2026-05-07 12:41 | 28.15455 | 34.19643 | 39946 ft | 466 kts | 306° |
| 2026-05-07 12:42 | 28.19554 | 34.13957 | 39946 ft | 466 kts | 306° |
| 2026-05-07 12:42 | 28.23664 | 34.08246 | 39966 ft | 466 kts | 306° |
| 2026-05-07 12:43 | 28.27767 | 34.02535 | 39955 ft | 466 kts | 306° |
| 2026-05-07 12:43 | 28.31834 | 33.96868 | 39833 ft | 463 kts | 306° |
| 2026-05-07 12:44 | 28.33869 | 33.94030 | 39500 ft | 464 kts | 306° |
| 2026-05-07 12:44 | 28.35924 | 33.91161 | 39158 ft | 466 kts | 306° |
| 2026-05-07 12:44 | 28.37941 | 33.88344 | 39025 ft | 463 kts | 306° |
| 2026-05-07 12:44 | 28.39969 | 33.85510 | 38910 ft | 459 kts | 306° |
| 2026-05-07 12:45 | 28.41985 | 33.82691 | 38761 ft | 456 kts | 306° |
| 2026-05-07 12:45 | 28.43969 | 33.79914 | 38528 ft | 455 kts | 306° |
| 2026-05-07 12:45 | 28.45972 | 33.77107 | 38195 ft | 456 kts | 306° |
| 2026-05-07 12:45 | 28.47959 | 33.74319 | 37825 ft | 457 kts | 306° |
| 2026-05-07 12:46 | 28.49965 | 33.71504 | 37469 ft | 457 kts | 307° |
| 2026-05-07 12:46 | 28.51974 | 33.68686 | 37138 ft | 457 kts | 307° |
| 2026-05-07 12:46 | 28.53961 | 33.65897 | 36785 ft | 457 kts | 307° |
| 2026-05-07 12:46 | 28.55975 | 33.63063 | 36410 ft | 458 kts | 307° |
| 2026-05-07 12:47 | 28.57967 | 33.60257 | 36047 ft | 459 kts | 307° |
| 2026-05-07 12:47 | 28.59963 | 33.57444 | 35687 ft | 459 kts | 307° |
| 2026-05-07 12:47 | 28.61969 | 33.54617 | 35372 ft | 458 kts | 307° |
| 2026-05-07 12:47 | 28.63970 | 33.51796 | 35039 ft | 457 kts | 307° |
| 2026-05-07 12:48 | 28.65959 | 33.48993 | 34678 ft | 457 kts | 307° |
| 2026-05-07 12:48 | 28.67968 | 33.46163 | 34309 ft | 457 kts | 307° |
| 2026-05-07 12:48 | 28.69967 | 33.43344 | 33985 ft | 456 kts | 308° |
| 2026-05-07 12:48 | 28.71944 | 33.40555 | 33458 ft | 457 kts | 308° |
| 2026-05-07 12:49 | 28.73954 | 33.37717 | 32899 ft | 459 kts | 308° |
| 2026-05-07 12:49 | 28.75965 | 33.34875 | 32362 ft | 460 kts | 308° |
| 2026-05-07 12:49 | 28.77958 | 33.32056 | 31753 ft | 462 kts | 308° |
| 2026-05-07 12:49 | 28.79980 | 33.29192 | 31117 ft | 464 kts | 308° |
| 2026-05-07 12:50 | 28.82018 | 33.26305 | 30492 ft | 466 kts | 308° |
| 2026-05-07 12:50 | 28.84054 | 33.23420 | 29989 ft | 464 kts | 308° |
| 2026-05-07 12:50 | 28.86054 | 33.20585 | 29760 ft | 455 kts | 308° |
| 2026-05-07 12:50 | 28.88027 | 33.17785 | 29610 ft | 463 kts | 308° |
| 2026-05-07 12:51 | 28.92056 | 33.12059 | 29568 ft | 461 kts | 308° |
| 2026-05-07 12:51 | 28.94030 | 33.09253 | 29465 ft | 462 kts | 308° |
| 2026-05-07 12:51 | 28.96056 | 33.06370 | 28692 ft | 469 kts | 308° |
| 2026-05-07 12:52 | 28.98089 | 33.03474 | 28374 ft | 464 kts | 308° |
| 2026-05-07 12:52 | 29.00109 | 33.00596 | 27874 ft | 464 kts | 308° |
| 2026-05-07 12:52 | 29.02122 | 32.97724 | 27522 ft | 461 kts | 308° |
| 2026-05-07 12:52 | 29.04125 | 32.94866 | 27110 ft | 460 kts | 308° |
| 2026-05-07 12:53 | 29.06112 | 32.92028 | 26863 ft | 455 kts | 308° |
| 2026-05-07 12:53 | 29.08090 | 32.89201 | 26474 ft | 454 kts | 308° |
| 2026-05-07 12:53 | 29.10054 | 32.86392 | 26167 ft | 451 kts | 308° |
| 2026-05-07 12:53 | 29.12008 | 32.83596 | 25777 ft | 450 kts | 308° |
| 2026-05-07 12:54 | 29.13951 | 32.80812 | 25556 ft | 446 kts | 308° |
| 2026-05-07 12:54 | 29.15891 | 32.78032 | 25096 ft | 447 kts | 308° |
| 2026-05-07 12:54 | 29.17818 | 32.75268 | 24810 ft | 444 kts | 308° |
| 2026-05-07 12:54 | 29.19746 | 32.72502 | 24522 ft | 442 kts | 308° |
| 2026-05-07 12:55 | 29.21660 | 32.69753 | 24179 ft | 440 kts | 308° |
| 2026-05-07 12:55 | 29.23563 | 32.67017 | 24047 ft | 440 kts | 308° |
| 2026-05-07 12:55 | 29.25475 | 32.64269 | 24019 ft | 441 kts | 308° |
| 2026-05-07 12:55 | 29.27390 | 32.61513 | 24022 ft | 443 kts | 308° |
| 2026-05-07 12:56 | 29.29297 | 32.58765 | 24031 ft | 450 kts | 308° |
| 2026-05-07 12:56 | 29.31244 | 32.55940 | 24023 ft | 454 kts | 308° |
| 2026-05-07 12:56 | 29.33196 | 32.53098 | 24012 ft | 446 kts | 308° |
| 2026-05-07 12:56 | 29.35088 | 32.50340 | 24027 ft | 442 kts | 308° |
| 2026-05-07 12:57 | 29.37016 | 32.47527 | 24040 ft | 453 kts | 308° |
| 2026-05-07 12:57 | 29.38968 | 32.44677 | 24033 ft | 454 kts | 308° |
| 2026-05-07 12:57 | 29.40907 | 32.41845 | 24027 ft | 450 kts | 308° |
| 2026-05-07 12:57 | 29.42835 | 32.39027 | 24008 ft | 446 kts | 308° |
| 2026-05-07 12:58 | 29.44725 | 32.36267 | 23837 ft | 434 kts | 308° |
| 2026-05-07 12:58 | 29.46572 | 32.33566 | 23334 ft | 426 kts | 308° |
| 2026-05-07 12:58 | 29.48394 | 32.30899 | 22632 ft | 423 kts | 308° |
| 2026-05-07 12:58 | 29.49592 | 32.29146 | 22198 ft | 420 kts | 308° |
| 2026-05-07 12:59 | 29.51382 | 32.26525 | 21573 ft | 415 kts | 308° |
| 2026-05-07 12:59 | 29.53160 | 32.23917 | 20854 ft | 414 kts | 308° |
| 2026-05-07 12:59 | 29.54921 | 32.21335 | 20351 ft | 408 kts | 308° |
| 2026-05-07 12:59 | 29.56665 | 32.18776 | 19709 ft | 405 kts | 308° |
| 2026-05-07 13:00 | 29.58397 | 32.16232 | 19093 ft | 403 kts | 308° |
| 2026-05-07 13:00 | 29.60115 | 32.13707 | 18694 ft | 394 kts | 308° |
| 2026-05-07 13:00 | 29.61734 | 32.11326 | 17963 ft | 368 kts | 308° |
| 2026-05-07 13:00 | 29.63318 | 32.08995 | 17033 ft | 373 kts | 308° |
| 2026-05-07 13:01 | 29.64912 | 32.06648 | 16467 ft | 371 kts | 308° |
| 2026-05-07 13:01 | 29.66487 | 32.04330 | 16052 ft | 366 kts | 308° |
| 2026-05-07 13:01 | 29.68052 | 32.02022 | 15460 ft | 365 kts | 308° |
| 2026-05-07 13:01 | 29.69607 | 31.99728 | 15051 ft | 360 kts | 308° |
| 2026-05-07 13:02 | 29.71143 | 31.97461 | 14475 ft | 361 kts | 308° |
| 2026-05-07 13:02 | 29.72678 | 31.95194 | 14103 ft | 353 kts | 307° |
| 2026-05-07 13:02 | 29.73952 | 31.92799 | 13538 ft | 352 kts | 295° |
| 2026-05-07 13:02 | 29.74665 | 31.90103 | 12908 ft | 355 kts | 281° |
| 2026-05-07 13:03 | 29.74949 | 31.87292 | 12381 ft | 354 kts | 276° |
| 2026-05-07 13:03 | 29.75108 | 31.84472 | 11828 ft | 353 kts | 275° |
| 2026-05-07 13:03 | 29.75233 | 31.81663 | 11347 ft | 351 kts | 275° |
| 2026-05-07 13:03 | 29.75345 | 31.78850 | 10819 ft | 351 kts | 275° |
| 2026-05-07 13:04 | 29.75451 | 31.76052 | 10376 ft | 349 kts | 275° |
| 2026-05-07 13:04 | 29.75555 | 31.73259 | 9822 ft | 350 kts | 275° |
| 2026-05-07 13:04 | 29.75657 | 31.70464 | 9330 ft | 348 kts | 275° |
| 2026-05-07 13:04 | 29.75749 | 31.67784 | 8921 ft | 327 kts | 275° |
| 2026-05-07 13:05 | 29.75832 | 31.65144 | 8255 ft | 327 kts | 275° |
| 2026-05-07 13:05 | 29.75910 | 31.62544 | 7909 ft | 323 kts | 275° |
| 2026-05-07 13:05 | 29.75985 | 31.59978 | 7603 ft | 319 kts | 275° |
| 2026-05-07 13:05 | 29.76057 | 31.57444 | 7265 ft | 316 kts | 275° |
| 2026-05-07 13:06 | 29.76350 | 31.54997 | 6763 ft | 308 kts | 292° |
| 2026-05-07 13:06 | 29.77271 | 31.52790 | 6276 ft | 306 kts | 303° |
| 2026-05-07 13:06 | 29.78432 | 31.50802 | 5968 ft | 287 kts | 309° |
| 2026-05-07 13:06 | 29.79604 | 31.49039 | 5496 ft | 269 kts | 311° |
| 2026-05-07 13:07 | 29.80744 | 31.47363 | 4920 ft | 267 kts | 312° |
| 2026-05-07 13:07 | 29.81887 | 31.45671 | 4628 ft | 266 kts | 311° |
| 2026-05-07 13:07 | 29.83011 | 31.43989 | 4376 ft | 264 kts | 311° |
| 2026-05-07 13:07 | 29.84118 | 31.42316 | 4124 ft | 261 kts | 311° |
| 2026-05-07 13:08 | 29.85215 | 31.40648 | 3839 ft | 261 kts | 311° |
| 2026-05-07 13:08 | 29.86251 | 31.39065 | 3754 ft | 251 kts | 311° |
| 2026-05-07 13:08 | 29.87292 | 31.37468 | 3748 ft | 252 kts | 311° |
| 2026-05-07 13:08 | 29.88374 | 31.35810 | 3773 ft | 264 kts | 310° |
| 2026-05-07 13:09 | 29.89487 | 31.34100 | 3783 ft | 267 kts | 310° |
| 2026-05-07 13:09 | 29.90581 | 31.32409 | 3777 ft | 264 kts | 310° |
| 2026-05-07 13:09 | 29.91671 | 31.30723 | 3753 ft | 253 kts | 311° |
| 2026-05-07 13:09 | 29.92696 | 31.29140 | 3749 ft | 240 kts | 311° |
| 2026-05-07 13:10 | 29.93673 | 31.27634 | 3574 ft | 236 kts | 310° |
| 2026-05-07 13:10 | 29.94646 | 31.26135 | 3358 ft | 232 kts | 310° |
| 2026-05-07 13:10 | 29.95758 | 31.24909 | 3146 ft | 214 kts | 338° |
| 2026-05-07 13:10 | 29.97148 | 31.24607 | 3067 ft | 200 kts | 6° |
| 2026-05-07 13:11 | 29.98464 | 31.25005 | 2909 ft | 193 kts | 24° |
| 2026-05-07 13:11 | 29.99508 | 31.25858 | 2821 ft | 178 kts | 44° |
| 2026-05-07 13:11 | 30.00301 | 31.26889 | 2727 ft | 166 kts | 46° |
| 2026-05-07 13:11 | 30.01060 | 31.27908 | 2657 ft | 169 kts | 46° |
| 2026-05-07 13:12 | 30.01822 | 31.28927 | 2587 ft | 169 kts | 47° |
| 2026-05-07 13:12 | 30.02577 | 31.29936 | 2507 ft | 163 kts | 47° |
| 2026-05-07 13:12 | 30.03324 | 31.30945 | 2327 ft | 168 kts | 46° |
| 2026-05-07 13:12 | 30.04100 | 31.31984 | 2097 ft | 171 kts | 49° |
| 2026-05-07 13:13 | 30.04859 | 31.32997 | 1883 ft | 168 kts | 48° |
| 2026-05-07 13:13 | 30.05619 | 31.34019 | 1677 ft | 163 kts | 46° |
| 2026-05-07 13:13 | 30.06345 | 31.34985 | 1437 ft | 153 kts | 47° |
| 2026-05-07 13:13 | 30.06998 | 31.35862 | 1252 ft | 135 kts | 46° |
| 2026-05-07 13:14 | 30.07554 | 31.36607 | 1138 ft | 110 kts | 46° |
| 2026-05-07 13:14 | 30.08116 | 31.37354 | 1150 ft | 141 kts | 46° |
| 2026-05-07 13:14 | 30.08740 | 31.38192 | 1043 ft | 131 kts | 46° |
| 2026-05-07 13:14 | 30.09326 | 31.39002 | 689 ft | 128 kts | 43° |
| 2026-05-07 13:15 | 30.09894 | 31.39753 | 454 ft | 125 kts | 43° |
| 2026-05-07 13:15 | 30.10471 | 31.40487 | 383 ft | 117 kts | 49° |
| 2026-05-07 13:15 | 30.10899 | 31.41058 | 377 ft | 75 kts | 50° |
| 2026-05-07 13:15 | 30.11198 | 31.41453 | 378 ft | 54 kts | 43° |
| 2026-05-07 13:16 | 30.11439 | 31.41609 | 379 ft | 21 kts | 18° |
| 2026-05-07 13:16 | 30.11449 | 31.41613 | 379 ft | 0 kts | 18° |
| 2026-05-07 13:16 | 30.11473 | 31.41621 | 379 ft | 11 kts | 16° |
| 2026-05-07 13:17 | 30.11556 | 31.41590 | 379 ft | 13 kts | 300° |
| 2026-05-07 13:17 | 30.11528 | 31.41503 | 379 ft | 14 kts | 232° |
| 2026-05-07 13:17 | 30.11451 | 31.41398 | 379 ft | 20 kts | 230° |
| 2026-05-07 13:17 | 30.11349 | 31.41265 | 380 ft | 25 kts | 229° |
| 2026-05-07 13:18 | 30.11226 | 31.41100 | 380 ft | 29 kts | 229° |
| 2026-05-07 13:18 | 30.11104 | 31.40940 | 379 ft | 25 kts | 229° |
| 2026-05-07 13:18 | 30.11078 | 31.40807 | 379 ft | 16 kts | 288° |
| 2026-05-07 13:18 | 30.11038 | 31.40693 | 379 ft | 16 kts | 229° |
| 2026-05-07 13:19 | 30.10964 | 31.40593 | 379 ft | 16 kts | 229° |
| 2026-05-07 13:19 | 30.10919 | 31.40493 | 379 ft | 13 kts | 274° |
| 2026-05-07 13:19 | 30.10944 | 31.40389 | 379 ft | 13 kts | 286° |
| 2026-05-07 13:19 | 30.10972 | 31.40316 | 379 ft | 6 kts | 320° |
| 2026-05-07 13:20 | 30.11011 | 31.40305 | 379 ft | 6 kts | 0° |
| 2026-05-07 13:20 | 30.11053 | 31.40316 | 379 ft | 3 kts | 17° |
| 2026-05-07 13:20 | 30.11053 | 31.40317 | 379 ft | 0 kts | 17° |